sensor_id;sensor_type;location;lat;lon;timestamp;P1;durP1;ratioP1;P2;durP2;ratioP2
4603;SDS011;2314;48.272;11.562;2022-10-18T00:01:48;151.93;;;14.10;;
4603;SDS011;2314;48.272;11.562;2022-10-18T00:04:15;153.73;;;13.60;;
4603;SDS011;2314;48.272;11.562;2022-10-18T00:06:42;137.47;;;11.80;;
4603;SDS011;2314;48.272;11.562;2022-10-18T00:09:10;143.03;;;12.73;;
4603;SDS011;2314;48.272;11.562;2022-10-18T00:11:37;138.87;;;12.00;;
4603;SDS011;2314;48.272;11.562;2022-10-18T00:14:04;136.53;;;11.43;;
4603;SDS011;2314;48.272;11.562;2022-10-18T00:16:31;141.90;;;10.87;;
4603;SDS011;2314;48.272;11.562;2022-10-18T00:18:59;139.07;;;9.60;;
4603;SDS011;2314;48.272;11.562;2022-10-18T00:21:26;144.50;;;10.80;;
4603;SDS011;2314;48.272;11.562;2022-10-18T00:23:53;132.27;;;8.47;;
4603;SDS011;2314;48.272;11.562;2022-10-18T00:26:21;138.47;;;11.30;;
4603;SDS011;2314;48.272;11.562;2022-10-18T00:28:53;136.00;;;10.20;;
4603;SDS011;2314;48.272;11.562;2022-10-18T00:31:22;133.73;;;9.40;;
4603;SDS011;2314;48.272;11.562;2022-10-18T00:33:51;132.73;;;9.10;;
4603;SDS011;2314;48.272;11.562;2022-10-18T00:36:21;137.43;;;10.60;;
4603;SDS011;2314;48.272;11.562;2022-10-18T00:38:48;133.17;;;9.50;;
4603;SDS011;2314;48.272;11.562;2022-10-18T00:41:17;144.70;;;9.00;;
4603;SDS011;2314;48.272;11.562;2022-10-18T00:43:52;134.37;;;8.63;;
4603;SDS011;2314;48.272;11.562;2022-10-18T00:46:24;129.37;;;7.50;;
4603;SDS011;2314;48.272;11.562;2022-10-18T00:48:53;130.97;;;8.00;;
4603;SDS011;2314;48.272;11.562;2022-10-18T00:51:24;131.10;;;7.80;;
4603;SDS011;2314;48.272;11.562;2022-10-18T00:53:56;129.70;;;7.93;;
4603;SDS011;2314;48.272;11.562;2022-10-18T00:56:23;136.80;;;8.10;;
4603;SDS011;2314;48.272;11.562;2022-10-18T00:58:50;134.50;;;7.93;;
4603;SDS011;2314;48.272;11.562;2022-10-18T01:01:18;138.90;;;7.67;;
4603;SDS011;2314;48.272;11.562;2022-10-18T01:03:45;130.03;;;8.07;;
4603;SDS011;2314;48.272;11.562;2022-10-18T01:06:12;132.07;;;8.60;;
4603;SDS011;2314;48.272;11.562;2022-10-18T01:11:50;135.10;;;7.90;;
4603;SDS011;2314;48.272;11.562;2022-10-18T01:14:37;132.57;;;8.00;;
4603;SDS011;2314;48.272;11.562;2022-10-18T01:17:14;132.87;;;8.00;;
4603;SDS011;2314;48.272;11.562;2022-10-18T01:20:02;136.67;;;8.33;;
4603;SDS011;2314;48.272;11.562;2022-10-18T01:22:56;144.87;;;8.27;;
4603;SDS011;2314;48.272;11.562;2022-10-18T01:25:37;136.60;;;10.23;;
4603;SDS011;2314;48.272;11.562;2022-10-18T01:28:18;134.50;;;10.00;;
4603;SDS011;2314;48.272;11.562;2022-10-18T01:31:02;130.07;;;8.50;;
4603;SDS011;2314;48.272;11.562;2022-10-18T01:33:32;136.30;;;8.10;;
4603;SDS011;2314;48.272;11.562;2022-10-18T01:36:06;132.07;;;8.20;;
4603;SDS011;2314;48.272;11.562;2022-10-18T01:38:40;132.63;;;8.33;;
4603;SDS011;2314;48.272;11.562;2022-10-18T01:41:09;130.63;;;8.37;;
4603;SDS011;2314;48.272;11.562;2022-10-18T01:43:37;130.50;;;7.90;;
4603;SDS011;2314;48.272;11.562;2022-10-18T01:46:07;135.50;;;8.10;;
4603;SDS011;2314;48.272;11.562;2022-10-18T01:48:36;129.43;;;7.63;;
4603;SDS011;2314;48.272;11.562;2022-10-18T01:51:03;129.90;;;7.40;;
4603;SDS011;2314;48.272;11.562;2022-10-18T01:53:31;142.63;;;7.80;;
4603;SDS011;2314;48.272;11.562;2022-10-18T01:56:12;130.67;;;7.77;;
4603;SDS011;2314;48.272;11.562;2022-10-18T01:59:11;130.10;;;7.30;;
4603;SDS011;2314;48.272;11.562;2022-10-18T02:01:56;135.47;;;8.07;;
4603;SDS011;2314;48.272;11.562;2022-10-18T02:04:33;134.00;;;6.90;;
4603;SDS011;2314;48.272;11.562;2022-10-18T02:07:12;129.10;;;6.93;;
4603;SDS011;2314;48.272;11.562;2022-10-18T02:09:51;138.80;;;7.80;;
4603;SDS011;2314;48.272;11.562;2022-10-18T02:12:28;134.10;;;7.73;;
4603;SDS011;2314;48.272;11.562;2022-10-18T02:14:58;138.07;;;7.77;;
4603;SDS011;2314;48.272;11.562;2022-10-18T02:17:29;136.40;;;8.57;;
4603;SDS011;2314;48.272;11.562;2022-10-18T02:19:57;129.67;;;7.23;;
4603;SDS011;2314;48.272;11.562;2022-10-18T02:22:27;129.87;;;7.40;;
4603;SDS011;2314;48.272;11.562;2022-10-18T02:24:58;128.57;;;7.07;;
4603;SDS011;2314;48.272;11.562;2022-10-18T02:27:30;130.00;;;7.70;;
4603;SDS011;2314;48.272;11.562;2022-10-18T02:29:57;127.87;;;7.27;;
4603;SDS011;2314;48.272;11.562;2022-10-18T02:32:25;131.97;;;7.77;;
4603;SDS011;2314;48.272;11.562;2022-10-18T02:34:59;131.57;;;7.30;;
4603;SDS011;2314;48.272;11.562;2022-10-18T02:37:31;128.33;;;6.90;;
4603;SDS011;2314;48.272;11.562;2022-10-18T02:40:02;128.83;;;7.77;;
4603;SDS011;2314;48.272;11.562;2022-10-18T02:42:32;135.90;;;8.93;;
4603;SDS011;2314;48.272;11.562;2022-10-18T02:45:01;131.30;;;8.27;;
4603;SDS011;2314;48.272;11.562;2022-10-18T02:47:30;130.27;;;9.10;;
4603;SDS011;2314;48.272;11.562;2022-10-18T02:49:57;138.47;;;10.60;;
4603;SDS011;2314;48.272;11.562;2022-10-18T02:52:24;131.87;;;10.73;;
4603;SDS011;2314;48.272;11.562;2022-10-18T02:54:51;134.03;;;10.63;;
4603;SDS011;2314;48.272;11.562;2022-10-18T02:57:18;135.30;;;10.37;;
4603;SDS011;2314;48.272;11.562;2022-10-18T02:59:45;134.40;;;10.70;;
4603;SDS011;2314;48.272;11.562;2022-10-18T03:02:12;133.57;;;9.90;;
4603;SDS011;2314;48.272;11.562;2022-10-18T03:04:41;134.53;;;10.63;;
4603;SDS011;2314;48.272;11.562;2022-10-18T03:07:08;132.90;;;9.40;;
4603;SDS011;2314;48.272;11.562;2022-10-18T03:09:35;132.93;;;10.50;;
4603;SDS011;2314;48.272;11.562;2022-10-18T03:12:02;136.13;;;11.47;;
4603;SDS011;2314;48.272;11.562;2022-10-18T03:14:29;135.43;;;11.60;;
4603;SDS011;2314;48.272;11.562;2022-10-18T03:16:56;135.00;;;10.30;;
4603;SDS011;2314;48.272;11.562;2022-10-18T03:19:23;134.10;;;10.57;;
4603;SDS011;2314;48.272;11.562;2022-10-18T03:21:51;133.17;;;10.03;;
4603;SDS011;2314;48.272;11.562;2022-10-18T03:24:18;136.10;;;9.80;;
4603;SDS011;2314;48.272;11.562;2022-10-18T03:26:45;130.77;;;8.90;;
4603;SDS011;2314;48.272;11.562;2022-10-18T03:29:12;131.57;;;8.93;;
4603;SDS011;2314;48.272;11.562;2022-10-18T03:31:39;143.50;;;8.47;;
4603;SDS011;2314;48.272;11.562;2022-10-18T03:34:06;129.97;;;7.77;;
4603;SDS011;2314;48.272;11.562;2022-10-18T03:36:33;134.77;;;7.73;;
4603;SDS011;2314;48.272;11.562;2022-10-18T03:39:01;130.87;;;8.63;;
4603;SDS011;2314;48.272;11.562;2022-10-18T03:41:28;130.37;;;8.20;;
4603;SDS011;2314;48.272;11.562;2022-10-18T03:43:55;137.87;;;7.67;;
4603;SDS011;2314;48.272;11.562;2022-10-18T03:46:22;129.97;;;8.30;;
4603;SDS011;2314;48.272;11.562;2022-10-18T03:48:49;130.30;;;8.17;;
4603;SDS011;2314;48.272;11.562;2022-10-18T03:51:16;133.10;;;8.40;;
4603;SDS011;2314;48.272;11.562;2022-10-18T03:53:43;131.27;;;8.30;;
4603;SDS011;2314;48.272;11.562;2022-10-18T03:56:12;132.80;;;8.60;;
4603;SDS011;2314;48.272;11.562;2022-10-18T03:58:39;136.17;;;8.53;;
4603;SDS011;2314;48.272;11.562;2022-10-18T04:01:06;130.27;;;8.40;;
4603;SDS011;2314;48.272;11.562;2022-10-18T04:03:33;130.37;;;7.80;;
4603;SDS011;2314;48.272;11.562;2022-10-18T04:06:00;137.53;;;7.53;;
4603;SDS011;2314;48.272;11.562;2022-10-18T04:08:27;131.20;;;7.57;;
4603;SDS011;2314;48.272;11.562;2022-10-18T04:10:54;130.10;;;7.60;;
4603;SDS011;2314;48.272;11.562;2022-10-18T04:13:23;130.97;;;7.90;;
4603;SDS011;2314;48.272;11.562;2022-10-18T04:15:50;130.87;;;8.33;;
4603;SDS011;2314;48.272;11.562;2022-10-18T04:18:17;134.60;;;8.37;;
4603;SDS011;2314;48.272;11.562;2022-10-18T04:20:44;131.87;;;7.77;;
4603;SDS011;2314;48.272;11.562;2022-10-18T04:23:11;129.67;;;7.87;;
4603;SDS011;2314;48.272;11.562;2022-10-18T04:25:38;130.90;;;7.30;;
4603;SDS011;2314;48.272;11.562;2022-10-18T04:28:05;129.50;;;7.63;;
4603;SDS011;2314;48.272;11.562;2022-10-18T04:33:02;128.37;;;7.77;;
4603;SDS011;2314;48.272;11.562;2022-10-18T04:35:29;129.63;;;7.90;;
4603;SDS011;2314;48.272;11.562;2022-10-18T04:37:56;129.70;;;7.40;;
4603;SDS011;2314;48.272;11.562;2022-10-18T04:40:22;134.80;;;8.10;;
4603;SDS011;2314;48.272;11.562;2022-10-18T04:42:50;130.67;;;8.33;;
4603;SDS011;2314;48.272;11.562;2022-10-18T04:45:16;129.77;;;7.47;;
4603;SDS011;2314;48.272;11.562;2022-10-18T04:47:45;134.20;;;7.80;;
4603;SDS011;2314;48.272;11.562;2022-10-18T04:50:12;129.63;;;7.93;;
4603;SDS011;2314;48.272;11.562;2022-10-18T04:52:39;129.40;;;7.27;;
4603;SDS011;2314;48.272;11.562;2022-10-18T04:55:06;130.07;;;8.37;;
4603;SDS011;2314;48.272;11.562;2022-10-18T04:57:33;130.97;;;8.30;;
4603;SDS011;2314;48.272;11.562;2022-10-18T05:00:01;128.70;;;7.70;;
4603;SDS011;2314;48.272;11.562;2022-10-18T05:02:28;129.27;;;7.77;;
4603;SDS011;2314;48.272;11.562;2022-10-18T05:04:57;129.50;;;8.03;;
4603;SDS011;2314;48.272;11.562;2022-10-18T05:07:24;127.33;;;7.30;;
4603;SDS011;2314;48.272;11.562;2022-10-18T05:09:51;128.57;;;7.87;;
4603;SDS011;2314;48.272;11.562;2022-10-18T05:12:18;138.97;;;8.27;;
4603;SDS011;2314;48.272;11.562;2022-10-18T05:14:46;134.47;;;8.67;;
4603;SDS011;2314;48.272;11.562;2022-10-18T05:17:13;135.37;;;11.00;;
4603;SDS011;2314;48.272;11.562;2022-10-18T05:19:40;134.47;;;11.00;;
4603;SDS011;2314;48.272;11.562;2022-10-18T05:22:08;132.37;;;10.00;;
4603;SDS011;2314;48.272;11.562;2022-10-18T05:24:35;134.77;;;9.50;;
4603;SDS011;2314;48.272;11.562;2022-10-18T05:27:02;129.80;;;9.03;;
4603;SDS011;2314;48.272;11.562;2022-10-18T05:29:29;130.23;;;9.07;;
4603;SDS011;2314;48.272;11.562;2022-10-18T05:31:56;134.00;;;10.77;;
4603;SDS011;2314;48.272;11.562;2022-10-18T05:34:24;136.80;;;10.50;;
4603;SDS011;2314;48.272;11.562;2022-10-18T05:36:51;133.97;;;11.30;;
4603;SDS011;2314;48.272;11.562;2022-10-18T05:39:19;138.10;;;12.13;;
4603;SDS011;2314;48.272;11.562;2022-10-18T05:41:47;135.97;;;12.13;;
4603;SDS011;2314;48.272;11.562;2022-10-18T05:44:14;138.50;;;12.27;;
4603;SDS011;2314;48.272;11.562;2022-10-18T05:46:41;140.93;;;15.60;;
4603;SDS011;2314;48.272;11.562;2022-10-18T05:49:08;135.63;;;14.03;;
4603;SDS011;2314;48.272;11.562;2022-10-18T05:51:36;133.90;;;10.90;;
4603;SDS011;2314;48.272;11.562;2022-10-18T05:54:03;130.93;;;9.33;;
4603;SDS011;2314;48.272;11.562;2022-10-18T05:56:32;139.33;;;8.67;;
4603;SDS011;2314;48.272;11.562;2022-10-18T05:58:59;130.60;;;8.67;;
4603;SDS011;2314;48.272;11.562;2022-10-18T06:01:29;130.40;;;7.63;;
4603;SDS011;2314;48.272;11.562;2022-10-18T06:03:56;127.40;;;7.47;;
4603;SDS011;2314;48.272;11.562;2022-10-18T06:06:23;127.67;;;6.50;;
4603;SDS011;2314;48.272;11.562;2022-10-18T06:08:50;130.87;;;7.00;;
4603;SDS011;2314;48.272;11.562;2022-10-18T06:11:17;128.60;;;6.47;;
4603;SDS011;2314;48.272;11.562;2022-10-18T06:13:47;126.07;;;6.60;;
4603;SDS011;2314;48.272;11.562;2022-10-18T06:16:16;128.10;;;5.90;;
4603;SDS011;2314;48.272;11.562;2022-10-18T06:18:46;128.57;;;6.10;;
4603;SDS011;2314;48.272;11.562;2022-10-18T06:21:14;128.27;;;6.83;;
4603;SDS011;2314;48.272;11.562;2022-10-18T06:23:42;126.30;;;6.80;;
4603;SDS011;2314;48.272;11.562;2022-10-18T06:26:09;128.90;;;7.57;;
4603;SDS011;2314;48.272;11.562;2022-10-18T06:28:37;128.50;;;6.70;;
4603;SDS011;2314;48.272;11.562;2022-10-18T06:31:05;130.50;;;7.23;;
4603;SDS011;2314;48.272;11.562;2022-10-18T06:33:33;125.37;;;6.37;;
4603;SDS011;2314;48.272;11.562;2022-10-18T06:36:02;128.10;;;8.13;;
4603;SDS011;2314;48.272;11.562;2022-10-18T06:38:31;129.33;;;8.23;;
4603;SDS011;2314;48.272;11.562;2022-10-18T06:40:59;131.40;;;8.30;;
4603;SDS011;2314;48.272;11.562;2022-10-18T06:43:26;126.90;;;7.53;;
4603;SDS011;2314;48.272;11.562;2022-10-18T06:45:53;136.70;;;7.53;;
4603;SDS011;2314;48.272;11.562;2022-10-18T06:48:22;126.53;;;6.30;;
4603;SDS011;2314;48.272;11.562;2022-10-18T06:50:50;130.77;;;6.90;;
4603;SDS011;2314;48.272;11.562;2022-10-18T06:53:19;130.53;;;6.83;;
4603;SDS011;2314;48.272;11.562;2022-10-18T06:55:46;128.90;;;7.20;;
4603;SDS011;2314;48.272;11.562;2022-10-18T06:58:13;129.50;;;7.47;;
4603;SDS011;2314;48.272;11.562;2022-10-18T07:00:40;127.23;;;7.30;;
4603;SDS011;2314;48.272;11.562;2022-10-18T07:03:09;124.47;;;6.60;;
4603;SDS011;2314;48.272;11.562;2022-10-18T07:05:37;129.97;;;8.03;;
4603;SDS011;2314;48.272;11.562;2022-10-18T07:08:04;128.83;;;6.80;;
4603;SDS011;2314;48.272;11.562;2022-10-18T07:10:31;128.00;;;6.90;;
4603;SDS011;2314;48.272;11.562;2022-10-18T07:12:59;128.73;;;6.77;;
4603;SDS011;2314;48.272;11.562;2022-10-18T07:15:26;129.10;;;6.57;;
4603;SDS011;2314;48.272;11.562;2022-10-18T07:17:53;126.90;;;6.93;;
4603;SDS011;2314;48.272;11.562;2022-10-18T07:20:20;128.40;;;6.27;;
4603;SDS011;2314;48.272;11.562;2022-10-18T07:22:48;131.27;;;6.80;;
4603;SDS011;2314;48.272;11.562;2022-10-18T07:25:15;125.40;;;6.80;;
4603;SDS011;2314;48.272;11.562;2022-10-18T07:27:43;131.80;;;7.20;;
4603;SDS011;2314;48.272;11.562;2022-10-18T07:30:10;130.63;;;6.43;;
4603;SDS011;2314;48.272;11.562;2022-10-18T07:32:37;126.90;;;6.07;;
4603;SDS011;2314;48.272;11.562;2022-10-18T07:35:04;124.97;;;6.60;;
4603;SDS011;2314;48.272;11.562;2022-10-18T07:37:32;122.70;;;5.93;;
4603;SDS011;2314;48.272;11.562;2022-10-18T07:40:00;125.07;;;6.67;;
4603;SDS011;2314;48.272;11.562;2022-10-18T07:42:27;133.67;;;6.20;;
4603;SDS011;2314;48.272;11.562;2022-10-18T07:44:54;124.67;;;7.23;;
4603;SDS011;2314;48.272;11.562;2022-10-18T07:47:21;127.87;;;6.10;;
4603;SDS011;2314;48.272;11.562;2022-10-18T07:49:49;132.50;;;6.43;;
4603;SDS011;2314;48.272;11.562;2022-10-18T07:52:16;123.60;;;6.40;;
4603;SDS011;2314;48.272;11.562;2022-10-18T07:54:43;121.60;;;6.10;;
4603;SDS011;2314;48.272;11.562;2022-10-18T07:57:11;125.27;;;6.90;;
4603;SDS011;2314;48.272;11.562;2022-10-18T07:59:38;125.73;;;6.20;;
4603;SDS011;2314;48.272;11.562;2022-10-18T08:02:05;128.00;;;5.90;;
4603;SDS011;2314;48.272;11.562;2022-10-18T08:04:32;125.43;;;6.00;;
4603;SDS011;2314;48.272;11.562;2022-10-18T08:06:59;143.07;;;11.77;;
4603;SDS011;2314;48.272;11.562;2022-10-18T08:09:26;138.23;;;13.60;;
4603;SDS011;2314;48.272;11.562;2022-10-18T08:11:53;134.27;;;10.83;;
4603;SDS011;2314;48.272;11.562;2022-10-18T08:14:22;125.40;;;7.80;;
4603;SDS011;2314;48.272;11.562;2022-10-18T08:16:49;124.30;;;6.90;;
4603;SDS011;2314;48.272;11.562;2022-10-18T08:19:16;135.37;;;6.77;;
4603;SDS011;2314;48.272;11.562;2022-10-18T08:21:43;135.23;;;6.83;;
4603;SDS011;2314;48.272;11.562;2022-10-18T08:24:10;125.80;;;6.60;;
4603;SDS011;2314;48.272;11.562;2022-10-18T08:26:37;127.20;;;6.00;;
4603;SDS011;2314;48.272;11.562;2022-10-18T08:29:04;126.70;;;6.37;;
4603;SDS011;2314;48.272;11.562;2022-10-18T08:31:32;125.30;;;6.90;;
4603;SDS011;2314;48.272;11.562;2022-10-18T08:33:59;128.70;;;5.10;;
4603;SDS011;2314;48.272;11.562;2022-10-18T08:36:26;123.13;;;6.17;;
4603;SDS011;2314;48.272;11.562;2022-10-18T08:38:53;127.60;;;6.20;;
4603;SDS011;2314;48.272;11.562;2022-10-18T08:41:24;121.57;;;6.00;;
4603;SDS011;2314;48.272;11.562;2022-10-18T08:44:10;119.23;;;5.60;;
4603;SDS011;2314;48.272;11.562;2022-10-18T08:46:44;122.60;;;5.30;;
4603;SDS011;2314;48.272;11.562;2022-10-18T08:49:18;121.00;;;5.00;;
4603;SDS011;2314;48.272;11.562;2022-10-18T08:51:52;121.63;;;5.37;;
4603;SDS011;2314;48.272;11.562;2022-10-18T08:54:21;120.67;;;5.27;;
4603;SDS011;2314;48.272;11.562;2022-10-18T08:56:56;117.87;;;5.27;;
4603;SDS011;2314;48.272;11.562;2022-10-18T08:59:27;119.47;;;4.73;;
4603;SDS011;2314;48.272;11.562;2022-10-18T09:02:04;121.23;;;4.77;;
4603;SDS011;2314;48.272;11.562;2022-10-18T09:04:48;117.17;;;5.00;;
4603;SDS011;2314;48.272;11.562;2022-10-18T09:10:18;118.37;;;4.57;;
4603;SDS011;2314;48.272;11.562;2022-10-18T09:16:19;117.57;;;4.90;;
4603;SDS011;2314;48.272;11.562;2022-10-18T09:18:55;115.33;;;4.73;;
4603;SDS011;2314;48.272;11.562;2022-10-18T09:21:35;117.60;;;4.83;;
4603;SDS011;2314;48.272;11.562;2022-10-18T09:24:13;114.80;;;5.10;;
4603;SDS011;2314;48.272;11.562;2022-10-18T09:26:54;118.43;;;4.60;;
4603;SDS011;2314;48.272;11.562;2022-10-18T09:29:35;116.93;;;4.43;;
4603;SDS011;2314;48.272;11.562;2022-10-18T09:32:24;119.17;;;4.30;;
4603;SDS011;2314;48.272;11.562;2022-10-18T09:35:13;114.37;;;4.33;;
4603;SDS011;2314;48.272;11.562;2022-10-18T09:37:45;114.97;;;4.53;;
4603;SDS011;2314;48.272;11.562;2022-10-18T09:40:14;111.47;;;4.20;;
4603;SDS011;2314;48.272;11.562;2022-10-18T09:42:46;117.47;;;3.87;;
4603;SDS011;2314;48.272;11.562;2022-10-18T09:45:22;113.80;;;4.17;;
4603;SDS011;2314;48.272;11.562;2022-10-18T09:47:56;115.93;;;4.60;;
4603;SDS011;2314;48.272;11.562;2022-10-18T09:50:35;115.10;;;4.67;;
4603;SDS011;2314;48.272;11.562;2022-10-18T09:53:10;114.33;;;4.37;;
4603;SDS011;2314;48.272;11.562;2022-10-18T09:55:48;121.37;;;5.13;;
4603;SDS011;2314;48.272;11.562;2022-10-18T09:58:23;113.57;;;3.90;;
4603;SDS011;2314;48.272;11.562;2022-10-18T10:00:53;118.67;;;4.20;;
4603;SDS011;2314;48.272;11.562;2022-10-18T10:03:21;112.00;;;4.30;;
4603;SDS011;2314;48.272;11.562;2022-10-18T10:05:49;114.20;;;4.13;;
4603;SDS011;2314;48.272;11.562;2022-10-18T10:08:40;114.00;;;4.00;;
4603;SDS011;2314;48.272;11.562;2022-10-18T10:14:13;113.40;;;4.00;;
4603;SDS011;2314;48.272;11.562;2022-10-18T10:16:46;117.30;;;3.80;;
4603;SDS011;2314;48.272;11.562;2022-10-18T10:19:17;110.60;;;3.73;;
4603;SDS011;2314;48.272;11.562;2022-10-18T10:21:52;111.87;;;3.83;;
4603;SDS011;2314;48.272;11.562;2022-10-18T10:24:25;110.37;;;3.90;;
4603;SDS011;2314;48.272;11.562;2022-10-18T10:27:16;111.67;;;3.80;;
4603;SDS011;2314;48.272;11.562;2022-10-18T10:29:56;109.47;;;3.60;;
4603;SDS011;2314;48.272;11.562;2022-10-18T10:32:25;110.83;;;3.60;;
4603;SDS011;2314;48.272;11.562;2022-10-18T10:34:55;110.27;;;4.17;;
4603;SDS011;2314;48.272;11.562;2022-10-18T10:37:28;109.57;;;3.50;;
4603;SDS011;2314;48.272;11.562;2022-10-18T10:42:59;109.27;;;3.63;;
4603;SDS011;2314;48.272;11.562;2022-10-18T10:45:34;109.97;;;3.90;;
4603;SDS011;2314;48.272;11.562;2022-10-18T10:48:05;110.60;;;3.40;;
4603;SDS011;2314;48.272;11.562;2022-10-18T10:50:49;112.60;;;3.60;;
4603;SDS011;2314;48.272;11.562;2022-10-18T10:53:31;109.40;;;3.60;;
4603;SDS011;2314;48.272;11.562;2022-10-18T10:56:05;109.10;;;3.37;;
4603;SDS011;2314;48.272;11.562;2022-10-18T10:58:40;110.97;;;3.83;;
4603;SDS011;2314;48.272;11.562;2022-10-18T11:01:18;109.20;;;3.80;;
4603;SDS011;2314;48.272;11.562;2022-10-18T11:03:51;111.83;;;3.63;;
4603;SDS011;2314;48.272;11.562;2022-10-18T11:09:21;107.37;;;3.93;;
4603;SDS011;2314;48.272;11.562;2022-10-18T11:12:07;105.90;;;3.77;;
4603;SDS011;2314;48.272;11.562;2022-10-18T11:14:48;106.80;;;3.40;;
4603;SDS011;2314;48.272;11.562;2022-10-18T11:17:24;106.70;;;4.13;;
4603;SDS011;2314;48.272;11.562;2022-10-18T11:22:55;109.80;;;4.00;;
4603;SDS011;2314;48.272;11.562;2022-10-18T11:25:31;107.07;;;3.70;;
4603;SDS011;2314;48.272;11.562;2022-10-18T11:28:22;107.47;;;3.67;;
4603;SDS011;2314;48.272;11.562;2022-10-18T11:31:11;106.47;;;3.60;;
4603;SDS011;2314;48.272;11.562;2022-10-18T11:33:46;109.57;;;3.80;;
4603;SDS011;2314;48.272;11.562;2022-10-18T11:36:31;107.27;;;3.80;;
4603;SDS011;2314;48.272;11.562;2022-10-18T11:39:08;108.40;;;3.70;;
4603;SDS011;2314;48.272;11.562;2022-10-18T11:41:47;109.10;;;4.17;;
4603;SDS011;2314;48.272;11.562;2022-10-18T11:44:21;106.87;;;3.70;;
4603;SDS011;2314;48.272;11.562;2022-10-18T11:46:59;108.17;;;3.60;;
4603;SDS011;2314;48.272;11.562;2022-10-18T11:49:42;108.00;;;3.63;;
4603;SDS011;2314;48.272;11.562;2022-10-18T11:52:32;113.40;;;3.40;;
4603;SDS011;2314;48.272;11.562;2022-10-18T11:55:15;109.57;;;3.47;;
4603;SDS011;2314;48.272;11.562;2022-10-18T11:57:56;109.07;;;3.97;;
4603;SDS011;2314;48.272;11.562;2022-10-18T12:00:42;109.17;;;4.70;;
4603;SDS011;2314;48.272;11.562;2022-10-18T12:03:16;110.90;;;4.00;;
4603;SDS011;2314;48.272;11.562;2022-10-18T12:05:52;112.50;;;3.83;;
4603;SDS011;2314;48.272;11.562;2022-10-18T12:08:24;107.07;;;3.43;;
4603;SDS011;2314;48.272;11.562;2022-10-18T12:10:59;108.20;;;3.57;;
4603;SDS011;2314;48.272;11.562;2022-10-18T12:13:38;107.00;;;4.03;;
4603;SDS011;2314;48.272;11.562;2022-10-18T12:16:11;105.00;;;2.80;;
4603;SDS011;2314;48.272;11.562;2022-10-18T12:18:42;107.07;;;3.50;;
4603;SDS011;2314;48.272;11.562;2022-10-18T12:21:16;105.17;;;3.37;;
4603;SDS011;2314;48.272;11.562;2022-10-18T12:23:48;104.67;;;2.93;;
4603;SDS011;2314;48.272;11.562;2022-10-18T12:26:19;113.70;;;3.27;;
4603;SDS011;2314;48.272;11.562;2022-10-18T12:28:50;105.57;;;2.90;;
4603;SDS011;2314;48.272;11.562;2022-10-18T12:31:29;106.10;;;3.27;;
4603;SDS011;2314;48.272;11.562;2022-10-18T12:34:02;107.47;;;3.30;;
4603;SDS011;2314;48.272;11.562;2022-10-18T12:36:50;105.00;;;2.87;;
4603;SDS011;2314;48.272;11.562;2022-10-18T12:39:57;109.80;;;3.40;;
4603;SDS011;2314;48.272;11.562;2022-10-18T12:42:28;114.17;;;2.90;;
4603;SDS011;2314;48.272;11.562;2022-10-18T12:45:03;106.07;;;2.90;;
4603;SDS011;2314;48.272;11.562;2022-10-18T12:47:59;105.00;;;2.97;;
4603;SDS011;2314;48.272;11.562;2022-10-18T12:50:29;105.30;;;2.77;;
4603;SDS011;2314;48.272;11.562;2022-10-18T12:53:00;114.53;;;2.90;;
4603;SDS011;2314;48.272;11.562;2022-10-18T12:55:31;106.60;;;2.73;;
4603;SDS011;2314;48.272;11.562;2022-10-18T13:00:57;106.23;;;2.97;;
4603;SDS011;2314;48.272;11.562;2022-10-18T13:06:22;109.60;;;3.33;;
4603;SDS011;2314;48.272;11.562;2022-10-18T13:11:46;106.80;;;2.80;;
4603;SDS011;2314;48.272;11.562;2022-10-18T13:17:14;107.07;;;2.80;;
4603;SDS011;2314;48.272;11.562;2022-10-18T13:19:53;108.77;;;3.33;;
4603;SDS011;2314;48.272;11.562;2022-10-18T13:22:43;107.50;;;2.40;;
4603;SDS011;2314;48.272;11.562;2022-10-18T13:25:31;111.03;;;3.10;;
4603;SDS011;2314;48.272;11.562;2022-10-18T13:28:16;109.07;;;3.03;;
4603;SDS011;2314;48.272;11.562;2022-10-18T13:30:53;107.77;;;3.30;;
4603;SDS011;2314;48.272;11.562;2022-10-18T13:33:31;106.67;;;2.93;;
4603;SDS011;2314;48.272;11.562;2022-10-18T13:36:00;108.90;;;3.00;;
4603;SDS011;2314;48.272;11.562;2022-10-18T13:38:31;106.53;;;3.03;;
4603;SDS011;2314;48.272;11.562;2022-10-18T13:41:06;109.53;;;3.13;;
4603;SDS011;2314;48.272;11.562;2022-10-18T13:50:18;107.67;;;3.00;;
4603;SDS011;2314;48.272;11.562;2022-10-18T13:53:21;107.97;;;3.50;;
4603;SDS011;2314;48.272;11.562;2022-10-18T13:56:09;108.30;;;2.67;;
4603;SDS011;2314;48.272;11.562;2022-10-18T13:58:57;108.07;;;2.93;;
4603;SDS011;2314;48.272;11.562;2022-10-18T14:01:45;112.30;;;3.03;;
4603;SDS011;2314;48.272;11.562;2022-10-18T14:04:41;108.97;;;3.50;;
4603;SDS011;2314;48.272;11.562;2022-10-18T14:07:26;113.30;;;3.10;;
4603;SDS011;2314;48.272;11.562;2022-10-18T14:09:53;118.70;;;3.33;;
4603;SDS011;2314;48.272;11.562;2022-10-18T14:12:24;110.77;;;3.40;;
4603;SDS011;2314;48.272;11.562;2022-10-18T14:14:58;113.50;;;3.30;;
4603;SDS011;2314;48.272;11.562;2022-10-18T14:17:33;109.60;;;3.10;;
4603;SDS011;2314;48.272;11.562;2022-10-18T14:20:12;113.30;;;3.13;;
4603;SDS011;2314;48.272;11.562;2022-10-18T14:22:50;108.37;;;2.90;;
4603;SDS011;2314;48.272;11.562;2022-10-18T14:25:27;109.73;;;2.80;;
4603;SDS011;2314;48.272;11.562;2022-10-18T14:28:03;113.27;;;3.40;;
4603;SDS011;2314;48.272;11.562;2022-10-18T14:30:51;119.43;;;4.17;;
4603;SDS011;2314;48.272;11.562;2022-10-18T14:33:24;115.37;;;3.23;;
4603;SDS011;2314;48.272;11.562;2022-10-18T14:36:04;120.40;;;3.60;;
4603;SDS011;2314;48.272;11.562;2022-10-18T14:38:37;113.37;;;3.33;;
4603;SDS011;2314;48.272;11.562;2022-10-18T14:41:13;108.67;;;2.60;;
4603;SDS011;2314;48.272;11.562;2022-10-18T14:43:42;122.23;;;3.20;;
4603;SDS011;2314;48.272;11.562;2022-10-18T14:46:15;110.77;;;2.77;;
4603;SDS011;2314;48.272;11.562;2022-10-18T14:48:51;111.93;;;2.80;;
4603;SDS011;2314;48.272;11.562;2022-10-18T14:51:20;113.00;;;3.40;;
4603;SDS011;2314;48.272;11.562;2022-10-18T14:53:49;118.70;;;3.60;;
4603;SDS011;2314;48.272;11.562;2022-10-18T14:56:24;111.27;;;3.37;;
4603;SDS011;2314;48.272;11.562;2022-10-18T14:58:55;112.90;;;3.40;;
4603;SDS011;2314;48.272;11.562;2022-10-18T15:01:27;119.80;;;2.90;;
4603;SDS011;2314;48.272;11.562;2022-10-18T15:03:56;144.03;;;9.90;;
4603;SDS011;2314;48.272;11.562;2022-10-18T15:06:26;137.23;;;6.27;;
4603;SDS011;2314;48.272;11.562;2022-10-18T15:08:55;126.47;;;6.73;;
4603;SDS011;2314;48.272;11.562;2022-10-18T15:11:24;116.53;;;3.57;;
4603;SDS011;2314;48.272;11.562;2022-10-18T15:13:53;115.53;;;4.17;;
4603;SDS011;2314;48.272;11.562;2022-10-18T15:16:23;113.10;;;3.27;;
4603;SDS011;2314;48.272;11.562;2022-10-18T15:18:59;112.67;;;3.53;;
4603;SDS011;2314;48.272;11.562;2022-10-18T15:21:30;119.50;;;4.30;;
4603;SDS011;2314;48.272;11.562;2022-10-18T15:26:46;119.00;;;4.07;;
4603;SDS011;2314;48.272;11.562;2022-10-18T15:29:15;122.40;;;3.77;;
4603;SDS011;2314;48.272;11.562;2022-10-18T15:31:45;122.50;;;3.67;;
4603;SDS011;2314;48.272;11.562;2022-10-18T15:34:14;113.63;;;4.13;;
4603;SDS011;2314;48.272;11.562;2022-10-18T15:36:45;122.60;;;4.50;;
4603;SDS011;2314;48.272;11.562;2022-10-18T15:39:14;114.27;;;4.07;;
4603;SDS011;2314;48.272;11.562;2022-10-18T15:41:46;122.90;;;4.53;;
4603;SDS011;2314;48.272;11.562;2022-10-18T15:44:22;117.97;;;4.57;;
4603;SDS011;2314;48.272;11.562;2022-10-18T15:46:52;122.00;;;4.60;;